createdAt,value
2023-05-05T00:01:53.713Z,12.57
2023-05-05T00:04:22.885Z,11.85
2023-05-05T00:06:50.851Z,10.95
2023-05-05T00:09:18.406Z,10.02
2023-05-05T00:11:45.453Z,11.15
2023-05-05T00:14:13.561Z,10.57
2023-05-05T00:16:40.588Z,12.50
2023-05-05T00:19:08.180Z,10.73
2023-05-05T00:21:35.143Z,11.10
2023-05-05T00:24:02.139Z,11.30
2023-05-05T00:26:29.088Z,12.30
2023-05-05T00:28:56.322Z,10.20
2023-05-05T00:31:24.047Z,9.77
2023-05-05T00:33:51.242Z,11.13
2023-05-05T00:36:18.720Z,11.18
2023-05-05T00:38:45.712Z,9.98
2023-05-05T00:41:12.814Z,11.60
2023-05-05T00:43:39.719Z,11.32
2023-05-05T00:46:14.826Z,13.30
2023-05-05T00:48:42.053Z,11.63
2023-05-05T00:51:10.552Z,12.30
2023-05-05T00:53:39.948Z,11.88
2023-05-05T00:56:08.052Z,16.35
2023-05-05T00:58:36.846Z,12.52
2023-05-05T01:01:03.753Z,11.63
2023-05-05T01:03:30.913Z,11.02
2023-05-05T01:06:16.758Z,9.95
2023-05-05T01:09:17.685Z,10.73
2023-05-05T01:12:15.526Z,14.13
2023-05-05T01:14:47.534Z,12.40
2023-05-05T01:17:19.010Z,16.65
2023-05-05T01:20:18.265Z,13.23
2023-05-05T01:22:53.430Z,13.40
2023-05-05T01:25:41.743Z,13.60
2023-05-05T01:28:28.761Z,12.70
2023-05-05T01:31:14.964Z,13.25
2023-05-05T01:33:49.850Z,13.73
2023-05-05T01:36:23.725Z,16.02
2023-05-05T01:38:57.344Z,15.27
2023-05-05T01:41:41.394Z,14.85
2023-05-05T01:44:11.065Z,12.10
2023-05-05T01:46:38.249Z,13.55
2023-05-05T01:49:08.715Z,12.50
2023-05-05T01:51:37.212Z,12.73
2023-05-05T01:54:09.053Z,12.30
2023-05-05T01:56:40.466Z,10.50
2023-05-05T01:59:09.074Z,10.23
2023-05-05T02:01:41.159Z,11.10
2023-05-05T02:04:10.091Z,11.38
2023-05-05T02:06:40.055Z,13.93
2023-05-05T02:11:35.896Z,11.15
2023-05-05T02:14:03.528Z,11.07
2023-05-05T02:16:31.431Z,12.65
2023-05-05T02:19:04.869Z,10.55
2023-05-05T02:21:32.899Z,11.13
2023-05-05T02:24:00.331Z,11.13
2023-05-05T02:26:30.496Z,11.38
2023-05-05T02:29:08.103Z,11.10
2023-05-05T02:31:44.414Z,11.43
2023-05-05T02:34:16.484Z,10.45
2023-05-05T02:36:44.913Z,11.45
2023-05-05T02:39:22.168Z,15.00
2023-05-05T02:41:51.495Z,14.82
2023-05-05T02:44:28.043Z,13.32
2023-05-05T02:46:56.680Z,13.07
2023-05-05T02:49:24.542Z,13.20
2023-05-05T02:51:58.295Z,13.02
2023-05-05T02:54:29.340Z,14.48
2023-05-05T02:56:58.011Z,16.15
2023-05-05T02:59:53.137Z,15.18
2023-05-05T03:02:39.160Z,16.33
2023-05-05T03:05:21.564Z,17.80
2023-05-05T03:08:00.483Z,19.42
2023-05-05T03:10:31.383Z,18.60
2023-05-05T03:13:03.023Z,17.85
2023-05-05T03:15:45.067Z,18.07
2023-05-05T03:18:15.796Z,16.23
2023-05-05T03:20:46.862Z,17.38
2023-05-05T03:23:18.562Z,18.88
2023-05-05T03:28:35.505Z,18.33
2023-05-05T03:31:08.828Z,17.45
2023-05-05T03:33:37.871Z,14.95
2023-05-05T03:36:05.000Z,15.23
2023-05-05T03:38:32.581Z,13.65
2023-05-05T03:41:26.059Z,11.45
2023-05-05T03:43:53.769Z,15.23
2023-05-05T03:46:20.847Z,13.00
2023-05-05T03:48:48.853Z,12.25
2023-05-05T03:51:15.951Z,14.07
2023-05-05T03:53:43.044Z,15.60
2023-05-05T03:56:10.743Z,14.63
2023-05-05T03:58:37.723Z,14.60
2023-05-05T04:01:05.234Z,17.10
2023-05-05T04:03:32.329Z,15.77
2023-05-05T04:05:59.548Z,15.95
2023-05-05T04:08:26.744Z,16.08
2023-05-05T04:10:53.687Z,16.08
2023-05-05T04:13:21.251Z,17.38
2023-05-05T04:15:48.753Z,19.65
2023-05-05T04:18:17.224Z,13.98
2023-05-05T04:20:44.557Z,13.05
2023-05-05T04:23:12.205Z,16.45
2023-05-05T04:25:39.780Z,13.65
2023-05-05T04:28:06.769Z,12.10
2023-05-05T04:30:33.660Z,13.57
2023-05-05T04:33:01.139Z,17.13
2023-05-05T04:35:28.479Z,16.27
2023-05-05T04:37:55.821Z,14.68
2023-05-05T04:40:23.199Z,16.77
2023-05-05T04:42:51.219Z,13.88
2023-05-05T04:45:18.306Z,14.05
2023-05-05T04:47:45.812Z,14.95
2023-05-05T04:50:12.936Z,13.73
2023-05-05T04:52:40.448Z,15.52
2023-05-05T04:55:09.737Z,17.13
2023-05-05T04:57:36.828Z,13.20
2023-05-05T05:00:06.553Z,12.70
2023-05-05T05:02:33.890Z,11.60
2023-05-05T05:05:01.182Z,12.77
2023-05-05T05:07:28.181Z,11.95
2023-05-05T05:09:55.235Z,13.48
2023-05-05T05:12:22.416Z,15.32
2023-05-05T05:14:50.553Z,11.48
2023-05-05T05:17:17.945Z,13.90
2023-05-05T05:19:45.029Z,13.57
2023-05-05T05:22:12.215Z,14.30
2023-05-05T05:24:41.113Z,17.92
2023-05-05T05:27:10.339Z,14.27
2023-05-05T05:29:39.958Z,15.30
2023-05-05T05:32:07.175Z,15.98
2023-05-05T05:34:34.463Z,16.20
2023-05-05T05:37:02.567Z,15.77
2023-05-05T05:39:29.589Z,17.35
2023-05-05T05:41:56.798Z,16.67
2023-05-05T05:44:23.894Z,16.02
2023-05-05T05:46:51.258Z,15.80
2023-05-05T05:49:18.299Z,15.23
2023-05-05T05:51:45.801Z,12.45
2023-05-05T05:54:12.822Z,13.07
2023-05-05T05:56:41.106Z,15.27
2023-05-05T05:59:10.278Z,14.75
2023-05-05T06:01:40.611Z,17.33
2023-05-05T06:04:08.270Z,16.55
2023-05-05T06:06:35.626Z,17.33
2023-05-05T06:09:02.756Z,18.92
2023-05-05T06:11:31.915Z,15.55
2023-05-05T06:13:59.948Z,20.00
2023-05-05T06:16:27.055Z,20.38
2023-05-05T06:18:54.583Z,18.48
2023-05-05T06:21:21.634Z,17.98
2023-05-05T06:23:48.682Z,16.60
2023-05-05T06:26:16.124Z,17.20
2023-05-05T06:28:43.300Z,17.02
2023-05-05T06:31:10.317Z,21.90
2023-05-05T06:33:37.337Z,18.02
2023-05-05T06:36:04.560Z,22.10
2023-05-05T06:38:31.672Z,23.05
2023-05-05T06:40:58.864Z,21.15
2023-05-05T06:43:26.006Z,16.70
2023-05-05T06:45:57.617Z,17.73
2023-05-05T06:48:24.686Z,15.60
2023-05-05T06:50:51.680Z,17.85
2023-05-05T06:53:18.626Z,17.25
2023-05-05T06:55:47.333Z,18.05
2023-05-05T06:58:14.274Z,15.82
2023-05-05T07:00:41.756Z,18.30
2023-05-05T07:03:08.818Z,16.33
2023-05-05T07:05:35.860Z,14.05
2023-05-05T07:08:02.840Z,15.60
2023-05-05T07:10:29.826Z,12.93
2023-05-05T07:12:56.901Z,15.18
2023-05-05T07:15:29.413Z,13.55
2023-05-05T07:17:57.499Z,13.52
2023-05-05T07:20:24.804Z,14.10
2023-05-05T07:22:51.843Z,12.82
2023-05-05T07:25:18.937Z,13.80
2023-05-05T07:27:46.127Z,12.13
2023-05-05T07:30:17.362Z,14.35
2023-05-05T07:32:45.256Z,17.23
2023-05-05T07:35:19.096Z,14.18
2023-05-05T07:37:46.599Z,13.07
2023-05-05T07:40:13.676Z,13.82
2023-05-05T07:42:40.700Z,13.55
2023-05-05T07:45:08.426Z,19.73
2023-05-05T07:47:35.744Z,17.20
2023-05-05T07:50:02.744Z,11.07
2023-05-05T07:52:44.127Z,10.57
2023-05-05T07:55:13.462Z,10.18
2023-05-05T07:57:40.558Z,11.23
2023-05-05T08:00:08.489Z,10.15
2023-05-05T08:02:41.965Z,9.75
2023-05-05T08:05:09.756Z,10.38
2023-05-05T08:07:41.475Z,12.18
2023-05-05T08:10:12.430Z,10.98
2023-05-05T08:12:40.035Z,10.57
2023-05-05T08:15:07.928Z,9.30
2023-05-05T08:17:49.251Z,9.88
2023-05-05T08:20:18.611Z,9.52
2023-05-05T08:22:46.401Z,9.75
2023-05-05T08:25:14.474Z,9.10
2023-05-05T08:27:43.042Z,9.48
2023-05-05T08:30:10.664Z,10.68
2023-05-05T08:32:38.654Z,18.50
2023-05-05T08:35:07.056Z,9.55
2023-05-05T08:37:34.970Z,9.40
2023-05-05T08:40:02.023Z,9.80
2023-05-05T08:42:38.212Z,9.20
2023-05-05T08:45:08.790Z,8.98
2023-05-05T08:47:37.206Z,9.80
2023-05-05T08:50:06.178Z,8.68
2023-05-05T08:52:45.555Z,9.05
2023-05-05T08:57:54.834Z,8.20
2023-05-05T09:00:22.685Z,8.35
2023-05-05T09:02:50.268Z,9.23
2023-05-05T09:05:18.135Z,8.95
2023-05-05T09:07:46.992Z,7.63
2023-05-05T09:10:13.983Z,7.45
2023-05-05T09:12:42.713Z,7.93
2023-05-05T09:15:11.895Z,8.02
2023-05-05T09:17:40.032Z,7.30
2023-05-05T09:20:08.695Z,7.45
2023-05-05T09:22:39.864Z,7.07
2023-05-05T09:25:10.053Z,7.93
2023-05-05T09:27:39.040Z,6.95
2023-05-05T09:30:07.086Z,14.43
2023-05-05T09:32:47.808Z,7.72
2023-05-05T09:35:16.447Z,7.43
2023-05-05T09:37:43.958Z,8.05
2023-05-05T09:40:19.639Z,11.27
2023-05-05T09:42:46.933Z,9.15
2023-05-05T09:45:20.088Z,13.95
2023-05-05T09:47:48.394Z,14.57
2023-05-05T09:50:19.174Z,7.78
2023-05-05T09:53:01.015Z,8.25
2023-05-05T09:55:28.747Z,9.77
2023-05-05T09:57:56.022Z,11.00
2023-05-05T10:00:30.663Z,9.68
2023-05-05T10:03:03.294Z,8.55
2023-05-05T10:05:30.604Z,7.05
2023-05-05T10:08:13.491Z,8.10
2023-05-05T10:10:51.719Z,7.72
2023-05-05T10:13:21.017Z,6.90
2023-05-05T10:15:51.411Z,7.32
2023-05-05T10:18:24.473Z,7.10
2023-05-05T10:20:58.029Z,7.18
2023-05-05T10:23:32.483Z,7.45
2023-05-05T10:26:05.848Z,7.45
2023-05-05T10:28:44.126Z,7.85
2023-05-05T10:31:29.754Z,7.53
2023-05-05T10:34:02.818Z,6.60
2023-05-05T10:36:32.031Z,7.60
2023-05-05T10:39:00.426Z,6.63
2023-05-05T10:41:28.846Z,7.40
2023-05-05T10:43:57.756Z,10.57
2023-05-05T10:46:27.051Z,6.97
2023-05-05T10:49:17.910Z,6.93
2023-05-05T10:51:56.996Z,6.40
2023-05-05T10:54:32.966Z,7.68
2023-05-05T10:57:05.075Z,7.38
2023-05-05T10:59:38.386Z,6.30
2023-05-05T11:02:17.907Z,7.85
2023-05-05T11:05:03.227Z,7.35
2023-05-05T11:07:30.253Z,6.63
2023-05-05T11:10:05.522Z,8.25
2023-05-05T11:12:53.720Z,6.20
2023-05-05T11:15:26.607Z,6.75
2023-05-05T11:18:01.921Z,6.68
2023-05-05T11:20:40.010Z,6.72
2023-05-05T11:23:07.154Z,7.07
2023-05-05T11:25:41.228Z,7.65
2023-05-05T11:28:21.194Z,6.90
2023-05-05T11:31:18.220Z,6.85
2023-05-05T11:33:45.439Z,7.22
2023-05-05T11:36:18.084Z,6.28
2023-05-05T11:39:19.565Z,6.65
2023-05-05T11:41:52.454Z,6.88
2023-05-05T11:44:21.112Z,6.75
2023-05-05T11:46:51.164Z,7.47
2023-05-05T11:49:33.360Z,6.90
2023-05-05T11:52:09.518Z,8.50
2023-05-05T11:54:50.807Z,6.82
2023-05-05T11:57:21.889Z,6.57
2023-05-05T11:59:54.942Z,6.50
2023-05-05T12:02:22.544Z,9.45
2023-05-05T12:04:50.193Z,6.35
2023-05-05T12:07:18.672Z,7.28
2023-05-05T12:09:47.412Z,6.20
2023-05-05T12:12:15.486Z,10.07
2023-05-05T12:14:53.151Z,6.50
2023-05-05T12:17:21.281Z,6.40
2023-05-05T12:19:51.052Z,6.18
2023-05-05T12:22:22.568Z,6.57
2023-05-05T12:24:59.944Z,6.65
2023-05-05T12:27:28.400Z,6.00
2023-05-05T12:29:56.998Z,6.65
2023-05-05T12:32:26.403Z,6.75
2023-05-05T12:37:26.486Z,5.65
2023-05-05T12:39:56.645Z,5.82
2023-05-05T12:42:23.702Z,6.20
2023-05-05T12:44:50.877Z,6.00
2023-05-05T12:47:31.960Z,6.35
2023-05-05T12:50:00.790Z,6.15
2023-05-05T12:52:45.027Z,6.35
2023-05-05T12:55:13.067Z,6.00
2023-05-05T12:58:00.644Z,6.40
2023-05-05T13:00:27.818Z,5.32
2023-05-05T13:02:54.943Z,6.13
2023-05-05T13:05:36.736Z,6.80
2023-05-05T13:08:03.818Z,6.97
2023-05-05T13:10:31.589Z,5.82
2023-05-05T13:12:58.809Z,6.50
2023-05-05T13:15:26.391Z,6.07
2023-05-05T13:18:03.074Z,6.15
2023-05-05T13:20:30.096Z,6.20
2023-05-05T13:22:57.527Z,5.60
2023-05-05T13:25:24.595Z,5.75
2023-05-05T13:27:51.638Z,5.63
2023-05-05T13:30:18.583Z,6.25
2023-05-05T13:32:45.602Z,5.60
2023-05-05T13:35:14.763Z,5.53
2023-05-05T13:37:44.536Z,5.45
2023-05-05T13:40:13.574Z,6.65
2023-05-05T13:42:40.569Z,5.35
2023-05-05T13:45:08.045Z,5.75
2023-05-05T13:47:35.305Z,5.68
2023-05-05T13:50:02.524Z,5.55
2023-05-05T13:52:31.108Z,5.35
2023-05-05T13:54:59.116Z,5.03
2023-05-05T13:57:26.705Z,6.05
2023-05-05T13:59:53.737Z,5.47
2023-05-05T14:02:20.771Z,6.50
2023-05-05T14:04:47.697Z,7.03
2023-05-05T14:07:14.839Z,5.50
2023-05-05T14:09:41.987Z,5.50
2023-05-05T14:12:09.004Z,6.38
2023-05-05T14:14:36.335Z,5.93
2023-05-05T14:17:03.425Z,5.78
2023-05-05T14:19:30.385Z,6.57
2023-05-05T14:21:57.815Z,7.78
2023-05-05T14:24:24.816Z,4.80
2023-05-05T14:26:51.775Z,5.50
2023-05-05T14:29:18.822Z,6.32
2023-05-05T14:31:45.802Z,5.50
2023-05-05T14:34:13.006Z,5.53
2023-05-05T14:36:39.885Z,4.95
2023-05-05T14:39:07.205Z,5.63
2023-05-05T14:41:34.080Z,5.55
2023-05-05T14:44:01.071Z,8.77
2023-05-05T14:46:28.280Z,6.55
2023-05-05T14:48:55.355Z,5.57
2023-05-05T14:51:22.403Z,5.88
2023-05-05T14:53:49.440Z,6.32
2023-05-05T14:56:17.246Z,6.60
2023-05-05T14:58:44.277Z,6.00
2023-05-05T15:01:11.385Z,5.65
2023-05-05T15:03:38.498Z,6.05
2023-05-05T15:06:06.046Z,6.63
2023-05-05T15:08:33.123Z,5.57
2023-05-05T15:11:00.028Z,5.50
2023-05-05T15:13:26.998Z,6.68
2023-05-05T15:15:53.943Z,5.80
2023-05-05T15:18:21.117Z,5.97
2023-05-05T15:20:48.116Z,6.95
2023-05-05T15:23:15.585Z,5.63
2023-05-05T15:25:42.576Z,6.13
2023-05-05T15:28:09.520Z,5.95
2023-05-05T15:30:36.661Z,7.57
2023-05-05T15:33:03.858Z,7.18
2023-05-05T15:35:31.038Z,7.50
2023-05-05T15:37:58.013Z,6.63
2023-05-05T15:40:25.138Z,8.02
2023-05-05T15:42:52.160Z,7.82
2023-05-05T15:45:19.320Z,7.68
2023-05-05T15:47:46.510Z,8.45
2023-05-05T15:50:13.934Z,7.82
2023-05-05T15:52:40.946Z,10.13
2023-05-05T15:55:08.877Z,9.25
2023-05-05T15:57:36.207Z,11.20
2023-05-05T16:00:03.401Z,10.68
2023-05-05T16:02:34.694Z,9.95
2023-05-05T16:05:01.772Z,10.57
2023-05-05T16:07:28.694Z,10.38
2023-05-05T16:09:56.988Z,10.05
2023-05-05T16:12:24.009Z,11.57
2023-05-05T16:14:51.000Z,9.95
2023-05-05T16:17:17.901Z,9.40
2023-05-05T16:19:44.994Z,9.30
2023-05-05T16:22:12.135Z,9.95
2023-05-05T16:24:39.408Z,9.77
2023-05-05T16:27:06.445Z,9.02
2023-05-05T16:29:33.458Z,9.00
2023-05-05T16:32:00.828Z,8.13
2023-05-05T16:34:27.876Z,8.98
2023-05-05T16:36:54.787Z,8.20
2023-05-05T16:39:21.863Z,8.45
2023-05-05T16:41:48.809Z,7.75
2023-05-05T16:44:16.060Z,8.45
2023-05-05T16:46:43.099Z,9.43
2023-05-05T16:49:10.151Z,8.18
2023-05-05T16:51:37.137Z,8.40
2023-05-05T16:54:04.285Z,7.13
2023-05-05T16:56:31.197Z,8.10
2023-05-05T16:58:58.280Z,7.43
2023-05-05T17:01:25.288Z,7.47
2023-05-05T17:03:52.297Z,8.07
2023-05-05T17:06:19.377Z,8.02
2023-05-05T17:08:46.301Z,7.50
2023-05-05T17:11:13.344Z,8.02
2023-05-05T17:13:40.369Z,8.32
2023-05-05T17:16:07.357Z,8.05
2023-05-05T17:18:34.442Z,7.88
2023-05-05T17:21:01.417Z,6.47
2023-05-05T17:23:28.355Z,6.03
2023-05-05T17:25:55.308Z,6.10
2023-05-05T17:28:22.671Z,5.72
2023-05-05T17:30:49.526Z,5.82
2023-05-05T17:33:20.983Z,6.20
2023-05-05T17:35:48.644Z,5.85
2023-05-05T17:38:15.840Z,5.80
2023-05-05T17:40:43.346Z,6.95
2023-05-05T17:43:10.495Z,5.65
2023-05-05T17:45:37.522Z,7.00
2023-05-05T17:48:04.757Z,5.95
2023-05-05T17:50:31.752Z,7.47
2023-05-05T17:52:58.715Z,7.05
2023-05-05T17:55:25.988Z,6.63
2023-05-05T17:57:53.013Z,6.88
2023-05-05T18:00:20.909Z,6.32
2023-05-05T18:02:53.051Z,7.57
2023-05-05T18:05:20.843Z,7.82
2023-05-05T18:07:47.756Z,7.25
2023-05-05T18:10:14.820Z,7.10
2023-05-05T18:12:41.901Z,7.47
2023-05-05T18:15:09.541Z,6.82
2023-05-05T18:17:36.627Z,6.47
2023-05-05T18:20:06.896Z,6.78
2023-05-05T18:22:34.374Z,8.27
2023-05-05T18:25:01.275Z,7.18
2023-05-05T18:27:28.947Z,6.85
2023-05-05T18:29:55.912Z,8.30
2023-05-05T18:32:24.046Z,8.45
2023-05-05T18:34:50.987Z,9.48
2023-05-05T18:37:17.963Z,8.00
2023-05-05T18:39:45.420Z,8.32
2023-05-05T18:42:13.231Z,8.23
2023-05-05T18:44:40.192Z,9.02
2023-05-05T18:47:08.016Z,9.30
2023-05-05T18:49:35.165Z,8.02
2023-05-05T18:52:02.062Z,8.57
2023-05-05T18:54:29.176Z,8.50
2023-05-05T18:56:56.320Z,8.10
2023-05-05T18:59:23.262Z,8.00
2023-05-05T19:01:50.291Z,7.85
2023-05-05T19:04:30.245Z,6.75
2023-05-05T19:06:58.192Z,8.77
2023-05-05T19:09:25.190Z,8.15
2023-05-05T19:11:53.293Z,8.73
2023-05-05T19:14:20.368Z,8.35
2023-05-05T19:16:47.334Z,8.27
2023-05-05T19:19:14.615Z,8.23
2023-05-05T19:21:41.655Z,8.25
2023-05-05T19:24:09.238Z,9.07
2023-05-05T19:26:36.261Z,9.40
2023-05-05T19:29:03.515Z,8.25
2023-05-05T19:31:31.453Z,8.10
2023-05-05T19:34:01.592Z,9.88
2023-05-05T19:36:29.164Z,9.75
2023-05-05T19:38:56.169Z,8.52
2023-05-05T19:41:23.419Z,8.77
2023-05-05T19:43:50.350Z,9.48
2023-05-05T19:46:17.487Z,8.82
2023-05-05T19:48:44.580Z,8.35
2023-05-05T19:51:11.658Z,8.50
2023-05-05T19:53:40.331Z,7.85
2023-05-05T19:56:07.694Z,9.77
2023-05-05T19:58:53.402Z,8.13
2023-05-05T20:01:20.474Z,8.18
2023-05-05T20:03:51.343Z,8.75
2023-05-05T20:06:18.451Z,10.63
2023-05-05T20:08:45.566Z,9.70
2023-05-05T20:11:14.297Z,9.68
2023-05-05T20:13:41.748Z,9.23
2023-05-05T20:16:09.163Z,10.50
2023-05-05T20:18:38.088Z,9.02
2023-05-05T20:21:05.269Z,9.23
2023-05-05T20:23:32.326Z,9.25
2023-05-05T20:25:59.405Z,9.35
2023-05-05T20:28:27.106Z,9.65
2023-05-05T20:30:54.321Z,8.32
2023-05-05T20:33:21.286Z,8.38
2023-05-05T20:35:48.355Z,8.18
2023-05-05T20:38:15.232Z,8.63
2023-05-05T20:40:42.352Z,8.85
2023-05-05T20:43:09.291Z,9.07
2023-05-05T20:45:37.383Z,7.68
2023-05-05T20:48:05.732Z,7.55
2023-05-05T20:50:33.089Z,11.20
2023-05-05T20:53:02.666Z,8.52
2023-05-05T20:55:29.724Z,8.02
2023-05-05T20:57:56.697Z,8.90
2023-05-05T21:00:26.525Z,8.60
2023-05-05T21:02:53.814Z,11.02
2023-05-05T21:05:21.189Z,8.85
2023-05-05T21:07:48.094Z,8.00
2023-05-05T21:10:15.063Z,8.38
2023-05-05T21:12:42.056Z,8.48
2023-05-05T21:15:09.965Z,8.82
2023-05-05T21:17:37.358Z,8.80
2023-05-05T21:20:04.665Z,8.77
2023-05-05T21:22:31.824Z,8.32
2023-05-05T21:25:17.505Z,7.72
2023-05-05T21:27:45.741Z,8.98
2023-05-05T21:30:13.188Z,8.10
2023-05-05T21:32:41.166Z,8.90
2023-05-05T21:35:09.430Z,8.82
2023-05-05T21:37:39.813Z,8.38
2023-05-05T21:40:11.266Z,10.38
2023-05-05T21:42:38.485Z,10.60
2023-05-05T21:45:05.761Z,11.20
2023-05-05T21:47:32.795Z,11.50
2023-05-05T21:49:59.791Z,10.55
2023-05-05T21:52:26.825Z,10.57
2023-05-05T21:54:53.778Z,10.43
2023-05-05T21:57:20.886Z,10.85
2023-05-05T21:59:47.855Z,13.70
2023-05-05T22:02:14.873Z,10.88
2023-05-05T22:04:41.776Z,12.23
2023-05-05T22:07:08.693Z,13.50
2023-05-05T22:09:35.915Z,17.38
2023-05-05T22:12:03.063Z,12.95
2023-05-05T22:14:30.293Z,14.30
2023-05-05T22:16:57.284Z,12.93
2023-05-05T22:19:24.264Z,13.18
2023-05-05T22:21:51.248Z,12.70
2023-05-05T22:24:18.182Z,15.23
2023-05-05T22:26:45.257Z,15.02
2023-05-05T22:29:12.338Z,13.15
2023-05-05T22:31:39.968Z,15.65
2023-05-05T22:34:07.263Z,14.10
2023-05-05T22:36:34.226Z,15.52
2023-05-05T22:39:01.261Z,14.68
2023-05-05T22:41:28.386Z,18.05
2023-05-05T22:44:03.358Z,15.70
2023-05-05T22:46:30.451Z,16.85
2023-05-05T22:48:57.402Z,13.73
2023-05-05T22:51:24.342Z,16.40
2023-05-05T22:53:51.353Z,13.05
2023-05-05T22:56:18.326Z,11.13
2023-05-05T22:58:46.766Z,9.82
2023-05-05T23:01:13.905Z,9.48
2023-05-05T23:03:41.718Z,9.65
2023-05-05T23:06:08.790Z,9.25
2023-05-05T23:08:35.790Z,9.60
2023-05-05T23:11:02.794Z,10.88
2023-05-05T23:13:31.055Z,11.65
2023-05-05T23:15:58.017Z,11.95
2023-05-05T23:18:24.992Z,9.68
2023-05-05T23:20:52.074Z,9.43
2023-05-05T23:23:18.951Z,9.02
2023-05-05T23:25:45.947Z,8.90
2023-05-05T23:28:12.989Z,9.30
2023-05-05T23:30:40.056Z,8.73
2023-05-05T23:33:07.067Z,9.20
2023-05-05T23:35:34.520Z,8.20
2023-05-05T23:38:01.568Z,9.95
2023-05-05T23:40:28.522Z,9.07
2023-05-05T23:42:55.465Z,10.35
2023-05-05T23:45:22.428Z,10.65
2023-05-05T23:47:49.760Z,11.02
2023-05-05T23:50:16.772Z,10.88
2023-05-05T23:52:43.682Z,10.85
2023-05-05T23:55:10.863Z,10.90
2023-05-05T23:57:38.127Z,14.07
